Share

Monticello, AR (71655)

Hwy 172 (KARMONTI2) Elev 256 ft | 33.55 °N, 91.82 °W | Change Station

Current weather conditions updated 5 minutes ago

Overcast
Overcast
54.5 °F
Feels Like 54.5 °F
N
0.0
Wind Variable Wind from WSW
Gusts 0.0 mph
Sunrise 6:33 AM
Sunset 7:40 PM
Moon Waning Gibbous

Today is forecast to be Warmer than yesterday.

Pressure 30.20 in
Visibility 8.0 miles
Clouds Overcast 4800 ft
Dew Point 40 °F
Humidity 59%
Rainfall 0.00 in
Snow Depth Not available.
UV 0 out of 16
Pollen 9.70 out of 12
Air Quality Not available.
Flu Activity Sporadic
METAR KLLQ 180553Z AUTO 00000KT 8SM OVC048 13/11 A3020 RMK AO2 SLP227 60000 T01280106 10183 20122 402000033 53002

More Conditions Fewer Conditions

Pressure 30.20 in
Visibility 8.0 miles
Clouds Overcast 4800 ft
Dew Point 40 °F
Humidity 59%
Rainfall 0.00 in
Snow Depth Not available.
UV 0 out of 16
Pollen 9.70 out of 12
Air Quality Not available.
Flu Activity Sporadic
METAR KLLQ 180553Z AUTO 00000KT 8SM OVC048 13/11 A3020 RMK AO2 SLP227 60000 T01280106 10183 20122 402000033 53002

More Conditions Fewer Conditions

10-Day Forecast

Almanac

Astronomy

Apr. 18, 2014 Rise Set
Actual Time 6:33 AM CDT 7:40 PM CDT
Civil Twilight 6:07 AM CDT 8:06 PM CDT
Nautical Twilight 5:36 AM CDT 8:36 PM CDT
Astronomical Twilight 5:05 AM CDT 9:08 PM CDT
Moon 11:19 PM CDT 9:01 AM CDT
Length of Visible Light 13h 58m
Length of Day
13h 07m
Tomorrow will be 1m 57s longer.
Waning Gibbous, 90% of the Moon is Illuminated
Today
Waning Gibbous
Apr 22
Last Quarter
Apr 29
New
May 6
First Quarter
May 14
Full

Today's Extremes

State Highs State Lows

Community

  • SUNRISE THROUGH THE TREES.
    SUNRISE THROUGH THE TREES.
  • Dog Wood Blossoms
    Dog Wood Blossoms
  • Morning Light
    Morning Light
  • New Day
    New Day
  • Lake Michigan Sunrise
    Lake Michigan Sunrise

WunderPhotos

Upload Photos

1,702,276 photos uploaded!

WunderBlogs® & News

Nearby

Snow Depth

Station Depth Elevation
No new snow has been reported.

Coastal Water Temperatures

Place Temperature
No Stations Reporting

Earthquake Activity

City Distance Mag. Time & Date
No recent earthquake activity has been reported nearby.
Minimum magnitude displayed is 2.5.

Nearby Weather Stations

Station Location Temp. Dew Point Humidity Wind Precip. Elev Updated Type
RAWS UAM AR, Monticello, AR 55 °F 55 °F 100% North  at  0 mph 0.00 in / hr 183 ft 12:00 AM CDT MADIS
Hwy 172, Monticello, AR 54.5 °F 40 °F 59% WSW  at  0.0 mph 0.00 in / hr 256 ft 1:03 AM CDT Normal
MesoWest WNCSTR , Winchester, AR 58 °F - - North  at  - 0.00 in / hr 162 ft 11:55 PM CDT MADIS

Show More Stations Show Fewer Stations

What do you think?

We're not finished. Please let us know what you like, what you don't like, and what you are still missing.